Terminal Aerodrome Forecast
Issued by NWS

Home | Current Version | Previous Version | Text Only | Print | Product List | Glossary On
Versions: 1 2 3 4 5 6 7 8 9 10 11 12 13 14
000
FTPA31 PHFO 030601 AAA
TAFHKO
TAF AMD
PHKO 030601Z 0306/0406 36011KT P6SM FEW050 BKN150
     FM030800 11005KT P6SM FEW050 BKN150
     FM032100 34010KT P6SM VCSH FEW030 SCT050 BKN100
     FM040500 04007KT P6SM SCT050 BKN100=

USA.gov is the U.S. government's official web portal to all federal, state and local government web resources and services.